Time;durP1;ratioP1;P1;durP2;ratioP2;P2;SDS_P1;SDS_P2;PMS_P1;PMS_P2;Temp;Humidity;BMP_temperature;BMP_pressure;BME280_temperature;BME280_humidity;BME280_pressure;Samples;Min_cycle;Max_cycle;Signal;HPM_P1;HPM_P2
2023/06/09 00:02:24;;;;;;;14.10;4.82;;;13.20;99.90;;;;;;5095058;28;20464;-63
2023/06/09 00:04:50;;;;;;;12.85;5.28;;;13.20;99.90;;;;;;5094569;28;20376;-62
2023/06/09 00:07:16;;;;;;;11.32;4.68;;;13.20;99.90;;;;;;5094727;28;20048;-63
2023/06/09 00:09:46;;;;;;;11.48;4.97;;;13.10;99.90;;;;;;5093862;28;20074;-63
2023/06/09 00:12:13;;;;;;;11.80;5.07;;;13.20;99.90;;;;;;5095189;28;20066;-63
2023/06/09 00:14:40;;;;;;;13.50;4.00;;;13.20;99.90;;;;;;5094674;28;20052;-62
2023/06/09 00:17:09;;;;;;;11.93;5.53;;;13.20;99.90;;;;;;5094334;28;20040;-63
2023/06/09 00:19:37;;;;;;;10.77;4.57;;;13.30;99.90;;;;;;5094697;28;20044;-61
2023/06/09 00:22:05;;;;;;;13.38;5.13;;;13.30;99.90;;;;;;5094808;28;20039;-65
2023/06/09 00:24:31;;;;;;;12.15;4.68;;;13.30;99.90;;;;;;5094636;28;20059;-62
2023/06/09 00:26:57;;;;;;;11.32;4.93;;;13.30;99.90;;;;;;5096805;28;20052;-64
2023/06/09 00:29:24;;;;;;;9.50;4.60;;;13.30;99.90;;;;;;5094607;28;20052;-64
2023/06/09 00:31:50;;;;;;;12.73;4.65;;;13.30;99.90;;;;;;5093768;28;20162;-68
2023/06/09 00:34:16;;;;;;;15.13;5.13;;;13.20;99.90;;;;;;5094620;28;20048;-63
2023/06/09 00:36:43;;;;;;;13.65;4.60;;;13.20;99.90;;;;;;5093956;28;20052;-62
2023/06/09 00:39:09;;;;;;;12.80;5.13;;;13.20;99.90;;;;;;5094515;28;20067;-63
2023/06/09 00:41:36;;;;;;;10.65;4.50;;;13.20;99.90;;;;;;5094436;28;20066;-62
2023/06/09 00:44:03;;;;;;;14.27;5.03;;;13.20;99.90;;;;;;5093996;28;20500;-63
2023/06/09 00:46:30;;;;;;;9.65;4.53;;;13.10;99.90;;;;;;5093746;28;20056;-63
2023/06/09 00:48:57;;;;;;;10.35;4.45;;;13.10;99.90;;;;;;5093078;28;20047;-63
2023/06/09 00:51:24;;;;;;;12.30;4.80;;;13.10;99.90;;;;;;5093993;28;20052;-63
2023/06/09 00:53:50;;;;;;;13.55;4.72;;;13.20;99.90;;;;;;5094125;28;20048;-63
2023/06/09 00:56:18;;;;;;;9.15;4.38;;;13.10;99.90;;;;;;5093570;28;20069;-63
2023/06/09 00:58:45;;;;;;;10.68;4.85;;;13.10;99.90;;;;;;5093746;28;20413;-62
2023/06/09 01:01:11;;;;;;;10.93;4.88;;;13.20;99.90;;;;;;5093959;28;20059;-64
2023/06/09 01:03:38;;;;;;;11.73;4.97;;;13.20;99.90;;;;;;5094329;28;20076;-64
2023/06/09 01:06:38;;;;;;;10.45;4.13;;;13.10;99.90;;;;;;5092985;28;20044;-63
2023/06/09 01:09:18;;;;;;;16.25;5.32;;;13.10;99.90;;;;;;5093408;28;20391;-63
2023/06/09 01:11:47;;;;;;;12.43;4.63;;;13.20;99.90;;;;;;5093856;28;20420;-63
2023/06/09 01:14:31;;;;;;;12.02;5.05;;;13.10;99.90;;;;;;5093492;28;20101;-64
2023/06/09 01:16:57;;;;;;;11.45;5.15;;;13.10;99.90;;;;;;5093483;28;20411;-64
2023/06/09 01:19:34;;;;;;;11.38;4.93;;;13.10;99.90;;;;;;5093469;28;20063;-63
2023/06/09 01:22:06;;;;;;;11.40;5.57;;;13.10;99.90;;;;;;5093910;28;20048;-63
2023/06/09 01:24:50;;;;;;;12.98;5.63;;;13.20;99.90;;;;;;5093415;28;20055;-63
2023/06/09 01:27:18;;;;;;;12.80;5.13;;;13.20;99.90;;;;;;5093253;28;20143;-63
2023/06/09 01:29:46;;;;;;;12.45;5.28;;;13.20;99.90;;;;;;5093156;28;20067;-63
2023/06/09 01:32:15;;;;;;;11.43;4.82;;;13.20;99.90;;;;;;5093392;28;20510;-63
2023/06/09 01:34:43;;;;;;;13.68;5.00;;;13.20;99.90;;;;;;5093053;28;20131;-62
2023/06/09 01:37:11;;;;;;;10.73;5.35;;;13.20;99.90;;;;;;5092908;28;20097;-61
2023/06/09 01:39:37;;;;;;;16.83;5.60;;;13.10;99.90;;;;;;5092209;28;20130;-62
2023/06/09 01:42:06;;;;;;;11.30;5.25;;;13.10;99.90;;;;;;5093344;28;20048;-62
2023/06/09 01:44:34;;;;;;;12.93;5.53;;;13.10;99.90;;;;;;5092142;28;20056;-62
2023/06/09 01:47:01;;;;;;;12.23;5.50;;;13.00;99.90;;;;;;5091841;28;20052;-62
2023/06/09 01:49:53;;;;;;;10.15;5.28;;;13.10;99.90;;;;;;5092956;28;20047;-63
2023/06/09 01:52:25;;;;;;;14.63;5.68;;;13.10;99.90;;;;;;5093112;28;20048;-63
2023/06/09 01:55:02;;;;;;;14.10;6.30;;;13.00;99.90;;;;;;5093297;28;20040;-64
2023/06/09 01:57:31;;;;;;;14.10;5.70;;;13.00;99.90;;;;;;5092772;28;20054;-66
2023/06/09 02:00:03;;;;;;;12.25;5.28;;;13.00;99.90;;;;;;5092834;28;20058;-65
2023/06/09 02:02:33;;;;;;;11.57;5.68;;;13.00;99.90;;;;;;5093264;28;20483;-64
2023/06/09 02:05:03;;;;;;;14.57;6.43;;;13.00;99.90;;;;;;5092418;28;20043;-63
2023/06/09 02:07:30;;;;;;;15.57;6.28;;;13.00;99.90;;;;;;5092295;28;20169;-63
2023/06/09 02:09:56;;;;;;;14.48;6.25;;;13.00;99.90;;;;;;5092657;28;20040;-63
2023/06/09 02:12:23;;;;;;;16.70;6.07;;;13.00;99.90;;;;;;5092676;28;20052;-63
2023/06/09 02:14:49;;;;;;;15.88;6.22;;;13.00;99.90;;;;;;5092318;28;20044;-63
2023/06/09 02:17:15;;;;;;;13.85;5.25;;;13.00;99.90;;;;;;5092009;28;20052;-63
2023/06/09 02:19:41;;;;;;;14.25;5.60;;;13.00;99.90;;;;;;5092325;28;20472;-63
2023/06/09 02:22:08;;;;;;;15.10;6.25;;;12.90;99.90;;;;;;5092605;28;20067;-63
2023/06/09 02:24:35;;;;;;;15.52;6.50;;;12.90;99.90;;;;;;5092418;28;20048;-62
2023/06/09 02:27:03;;;;;;;15.18;6.03;;;12.90;99.90;;;;;;5091940;28;20117;-63
2023/06/09 02:29:30;;;;;;;14.70;6.35;;;12.90;99.90;;;;;;5091956;28;20138;-64
2023/06/09 02:31:59;;;;;;;15.65;6.82;;;12.90;99.90;;;;;;5092442;28;20063;-64
2023/06/09 02:34:26;;;;;;;11.93;5.88;;;12.80;99.90;;;;;;5091909;28;20056;-63
2023/06/09 02:36:54;;;;;;;15.60;6.20;;;12.80;99.90;;;;;;5091463;28;20048;-66
2023/06/09 02:39:21;;;;;;;14.27;6.07;;;12.80;99.90;;;;;;5092427;28;20055;-68
2023/06/09 02:41:47;;;;;;;15.32;5.63;;;12.80;99.90;;;;;;5092316;28;20052;-64
2023/06/09 02:44:14;;;;;;;15.40;6.28;;;12.80;99.90;;;;;;5091924;28;20048;-64
2023/06/09 02:46:42;;;;;;;16.50;6.10;;;12.70;99.90;;;;;;5091462;28;20051;-63
2023/06/09 02:49:09;;;;;;;13.77;6.05;;;12.80;99.90;;;;;;5092189;28;20126;-64
2023/06/09 02:51:36;;;;;;;13.57;6.00;;;12.80;99.90;;;;;;5091833;28;20081;-62
2023/06/09 02:54:03;;;;;;;12.57;5.88;;;12.80;99.90;;;;;;5091867;28;20138;-63
2023/06/09 02:56:29;;;;;;;13.73;6.55;;;12.60;99.90;;;;;;5091273;28;20047;-63
2023/06/09 02:58:57;;;;;;;12.88;6.60;;;12.70;99.90;;;;;;5092011;28;20387;-63
2023/06/09 03:01:24;;;;;;;13.23;6.80;;;12.60;99.90;;;;;;5091651;28;20664;-62
2023/06/09 03:03:50;;;;;;;16.27;6.55;;;12.60;99.90;;;;;;5091533;28;20044;-66
2023/06/09 03:06:16;;;;;;;13.73;6.63;;;12.60;99.90;;;;;;5091121;28;20121;-62
2023/06/09 03:08:43;;;;;;;15.75;7.50;;;12.60;99.90;;;;;;5091267;28;20460;-66
2023/06/09 03:11:10;;;;;;;18.08;7.22;;;12.60;99.90;;;;;;5091574;28;20456;-62
2023/06/09 03:13:36;;;;;;;13.73;6.68;;;12.60;99.90;;;;;;5091546;28;20040;-64
2023/06/09 03:16:03;;;;;;;12.70;6.43;;;12.60;99.90;;;;;;5091152;28;20047;-64
2023/06/09 03:18:29;;;;;;;14.15;6.70;;;12.60;99.90;;;;;;5091516;28;20048;-64
2023/06/09 03:21:01;;;;;;;16.02;6.57;;;12.50;99.90;;;;;;5091496;28;20048;-62
2023/06/09 03:23:28;;;;;;;17.60;7.53;;;12.50;99.90;;;;;;5091754;28;20062;-62
2023/06/09 03:25:55;;;;;;;16.90;7.18;;;12.50;99.90;;;;;;5090715;28;20051;-62
2023/06/09 03:28:21;;;;;;;14.90;6.38;;;12.40;99.90;;;;;;5093435;28;20415;-62
2023/06/09 03:30:47;;;;;;;13.57;6.43;;;12.40;99.90;;;;;;5095492;28;20047;-62
2023/06/09 03:33:14;;;;;;;17.75;7.45;;;12.30;99.90;;;;;;5095218;28;20491;-62
2023/06/09 03:35:41;;;;;;;16.10;6.43;;;12.40;99.90;;;;;;5095056;28;20051;-62
2023/06/09 03:38:07;;;;;;;14.25;6.80;;;12.40;99.90;;;;;;5095367;28;20418;-62
2023/06/09 03:40:36;;;;;;;14.95;6.20;;;12.40;99.90;;;;;;5095378;28;20052;-63
2023/06/09 03:43:02;;;;;;;14.93;7.00;;;12.40;99.90;;;;;;5095694;28;20464;-63
2023/06/09 03:45:28;;;;;;;14.05;7.13;;;12.30;99.90;;;;;;5095166;28;20495;-62
2023/06/09 03:47:54;;;;;;;19.13;7.05;;;12.30;99.90;;;;;;5093639;28;20060;-63
2023/06/09 03:50:21;;;;;;;16.15;7.65;;;12.30;99.90;;;;;;5095201;28;20044;-62
2023/06/09 03:52:47;;;;;;;21.88;7.75;;;12.30;99.90;;;;;;5095405;28;20426;-62
2023/06/09 03:55:19;;;;;;;13.90;8.18;;;12.30;99.90;;;;;;5094874;28;20120;-62
2023/06/09 03:57:46;;;;;;;13.60;6.95;;;12.30;99.90;;;;;;5095220;28;20453;-62
2023/06/09 04:00:12;;;;;;;16.42;7.55;;;12.30;99.90;;;;;;5095608;28;20085;-63
2023/06/09 04:02:38;;;;;;;14.73;7.57;;;12.30;99.90;;;;;;5095378;28;20101;-62
2023/06/09 04:05:05;;;;;;;12.88;7.57;;;12.40;99.90;;;;;;5094812;28;20044;-62
2023/06/09 04:07:32;;;;;;;15.50;7.88;;;12.30;99.90;;;;;;5094666;28;20090;-62
2023/06/09 04:09:58;;;;;;;17.80;7.63;;;12.30;99.90;;;;;;5094690;28;20384;-62
2023/06/09 04:12:24;;;;;;;16.30;7.85;;;12.30;99.90;;;;;;5095050;28;20359;-63
2023/06/09 04:14:51;;;;;;;18.08;8.20;;;12.40;99.90;;;;;;5094904;28;20166;-63
2023/06/09 04:17:17;;;;;;;15.85;7.18;;;12.40;99.90;;;;;;5095836;28;20453;-62
2023/06/09 04:19:44;;;;;;;14.02;7.20;;;12.50;99.90;;;;;;5094719;28;20113;-62
2023/06/09 04:22:10;;;;;;;18.90;8.07;;;12.50;99.90;;;;;;5094568;28;20564;-62
2023/06/09 04:24:37;;;;;;;18.88;7.97;;;12.60;99.90;;;;;;5094421;28;20101;-63
2023/06/09 04:27:03;;;;;;;18.67;8.30;;;12.60;99.90;;;;;;5094222;28;20043;-63
2023/06/09 04:29:33;;;;;;;17.17;8.07;;;12.60;99.90;;;;;;5094363;28;20060;-63
2023/06/09 04:32:00;;;;;;;16.95;7.97;;;12.70;99.90;;;;;;5094311;28;20441;-63
2023/06/09 04:34:27;;;;;;;19.55;8.32;;;12.70;99.90;;;;;;5094125;28;20430;-64
2023/06/09 04:36:55;;;;;;;18.60;8.07;;;12.80;99.90;;;;;;5094084;28;20044;-63
2023/06/09 04:39:25;;;;;;;16.95;7.90;;;12.80;99.90;;;;;;5093595;28;20442;-63
2023/06/09 04:41:54;;;;;;;15.52;7.78;;;12.90;99.90;;;;;;5094561;28;20051;-63
2023/06/09 04:44:21;;;;;;;19.48;8.55;;;12.80;99.90;;;;;;5094080;28;20097;-62
2023/06/09 04:46:49;;;;;;;15.35;8.02;;;12.90;99.90;;;;;;5093598;28;20464;-61
2023/06/09 04:49:16;;;;;;;15.85;7.95;;;13.00;99.90;;;;;;5094106;28;20048;-62
2023/06/09 04:51:48;;;;;;;17.25;7.72;;;13.00;99.90;;;;;;5093746;28;20590;-62
2023/06/09 04:54:18;;;;;;;21.27;8.38;;;13.30;99.90;;;;;;5094390;28;20059;-65
2023/06/09 04:56:45;;;;;;;14.43;7.15;;;14.00;99.90;;;;;;5093248;28;20117;-65
2023/06/09 04:59:11;;;;;;;17.65;7.93;;;14.80;99.90;;;;;;5093040;28;20048;-63
2023/06/09 05:01:41;;;;;;;12.90;7.20;;;15.40;99.90;;;;;;5093602;28;20483;-64
2023/06/09 05:04:07;;;;;;;16.02;8.10;;;15.70;99.90;;;;;;5087596;28;20438;-64
2023/06/09 05:06:36;;;;;;;15.00;8.18;;;16.20;99.90;;;;;;5086144;28;20052;-63
2023/06/09 05:09:05;;;;;;;19.10;8.25;;;16.50;99.90;;;;;;5078683;28;20087;-64
2023/06/09 05:11:31;;;;;;;20.33;8.85;;;16.70;99.90;;;;;;5102274;28;20063;-66
2023/06/09 05:13:58;;;;;;;13.65;7.50;;;16.80;99.90;;;;;;5081545;28;20037;-63
2023/06/09 05:16:25;;;;;;;15.55;7.95;;;16.80;99.90;;;;;;5083337;28;20494;-63
2023/06/09 05:18:52;;;;;;;19.27;8.68;;;17.00;99.90;;;;;;5082586;28;20044;-64
2023/06/09 05:21:19;;;;;;;16.70;7.70;;;17.10;99.90;;;;;;5081341;28;21110;-63
2023/06/09 05:23:45;;;;;;;16.73;8.10;;;17.40;99.90;;;;;;5081995;28;20426;-62
2023/06/09 05:26:11;;;;;;;22.10;7.78;;;17.50;99.90;;;;;;5084191;28;20040;-64
2023/06/09 05:28:38;;;;;;;12.75;7.70;;;17.90;99.90;;;;;;5073368;28;20063;-64
2023/06/09 05:31:04;;;;;;;15.95;7.45;;;18.10;99.90;;;;;;5078213;28;20051;-63
2023/06/09 05:33:30;;;;;;;15.43;7.40;;;18.30;99.90;;;;;;5073175;28;20190;-63
2023/06/09 05:35:56;;;;;;;15.55;8.32;;;18.20;99.90;;;;;;5082570;28;20083;-62
2023/06/09 05:38:25;;;;;;;15.05;7.40;;;18.50;99.90;;;;;;5073545;28;20045;-63
2023/06/09 05:40:52;;;;;;;15.95;7.85;;;18.70;99.90;;;;;;5079844;28;20468;-63
2023/06/09 05:43:18;;;;;;;14.95;8.30;;;19.10;99.90;;;;;;5091977;28;20052;-65
2023/06/09 05:45:44;;;;;;;15.48;7.97;;;19.30;99.90;;;;;;5085038;28;20048;-64
2023/06/09 05:48:11;;;;;;;11.73;8.15;;;19.40;99.90;;;;;;5092013;28;20056;-63
2023/06/09 05:50:40;;;;;;;14.50;8.48;;;19.50;99.90;;;;;;5081596;28;20106;-63
2023/06/09 05:53:06;;;;;;;12.40;7.13;;;19.40;99.90;;;;;;5073194;28;20044;-62
2023/06/09 05:55:33;;;;;;;12.52;7.22;;;19.60;99.90;;;;;;5081736;28;20372;-66
2023/06/09 05:58:00;;;;;;;13.85;7.45;;;20.10;99.90;;;;;;5093015;28;20102;-64
2023/06/09 06:00:29;;;;;;;15.48;7.63;;;20.30;99.90;;;;;;5091134;28;20056;-64
2023/06/09 06:02:57;;;;;;;16.33;8.15;;;20.70;99.90;;;;;;5093041;28;20131;-64
2023/06/09 06:05:24;;;;;;;14.60;7.35;;;20.80;99.90;;;;;;5092594;28;20052;-63
2023/06/09 06:07:50;;;;;;;14.20;7.88;;;20.60;99.90;;;;;;5091583;28;20048;-67
2023/06/09 06:10:17;;;;;;;13.80;8.05;;;20.50;99.90;;;;;;5092422;28;20074;-63
2023/06/09 06:12:43;;;;;;;14.00;7.78;;;20.50;99.90;;;;;;5092989;28;20048;-64
2023/06/09 06:15:09;;;;;;;16.02;8.00;;;20.40;99.90;;;;;;5091982;28;20525;-63
2023/06/09 06:17:36;;;;;;;16.40;7.90;;;20.50;99.90;;;;;;5092481;28;20048;-63
2023/06/09 06:20:05;;;;;;;14.32;7.32;;;20.80;99.90;;;;;;5091913;28;20052;-63
2023/06/09 06:22:32;;;;;;;16.05;8.10;;;21.00;99.90;;;;;;5092431;28;20377;-63
2023/06/09 06:24:58;;;;;;;15.75;8.10;;;21.40;99.90;;;;;;5092152;28;20055;-64
2023/06/09 06:27:24;;;;;;;15.77;7.35;;;21.60;99.90;;;;;;5092291;28;20138;-64
2023/06/09 06:29:51;;;;;;;15.82;8.30;;;21.50;99.90;;;;;;5091869;28;20044;-65
2023/06/09 06:32:17;;;;;;;13.18;7.55;;;21.90;99.90;;;;;;5092420;28;20040;-64
2023/06/09 06:34:43;;;;;;;12.52;6.88;;;21.80;99.90;;;;;;5091922;28;20051;-64
2023/06/09 06:37:09;;;;;;;16.30;7.85;;;22.10;99.90;;;;;;5092370;28;20105;-63
2023/06/09 06:39:36;;;;;;;12.25;7.72;;;21.90;99.90;;;;;;5091638;28;20044;-65
2023/06/09 06:42:02;;;;;;;12.73;7.93;;;22.40;99.90;;;;;;5092036;28;20069;-65
2023/06/09 06:44:28;;;;;;;17.15;8.57;;;22.40;99.90;;;;;;5091882;28;20055;-67
2023/06/09 06:46:55;;;;;;;13.00;7.93;;;22.60;99.90;;;;;;5091994;28;20051;-66
2023/06/09 06:49:21;;;;;;;13.57;8.10;;;23.00;99.90;;;;;;5079502;28;20154;-65
2023/06/09 06:51:47;;;;;;;15.07;7.68;;;23.30;99.90;;;;;;5088399;28;20079;-65
2023/06/09 06:54:15;;;;;;;14.77;8.27;;;23.30;99.90;;;;;;5071627;28;20048;-64
2023/06/09 06:56:42;;;;;;;13.68;9.35;;;23.00;99.90;;;;;;5090286;28;20043;-65
2023/06/09 06:59:09;;;;;;;15.93;7.53;;;22.20;99.90;;;;;;5091535;28;20044;-64
2023/06/09 07:01:37;;;;;;;12.13;8.60;;;21.60;99.90;;;;;;5091052;28;20472;-65
2023/06/09 07:04:03;;;;;;;13.63;8.25;;;21.10;99.90;;;;;;5091802;28;20060;-64
2023/06/09 07:06:31;;;;;;;14.40;8.50;;;20.80;99.90;;;;;;5090017;28;20357;-64
2023/06/09 07:08:59;;;;;;;17.70;8.55;;;20.90;99.90;;;;;;5090006;28;20083;-65
2023/06/09 07:11:25;;;;;;;13.73;7.88;;;21.00;99.90;;;;;;5091145;28;20388;-65
2023/06/09 07:13:53;;;;;;;13.10;8.70;;;21.30;99.90;;;;;;5091755;28;20055;-64
2023/06/09 07:16:19;;;;;;;12.35;7.60;;;21.20;99.90;;;;;;5091417;28;20105;-67
2023/06/09 07:18:46;;;;;;;15.63;8.32;;;21.20;99.90;;;;;;5090690;28;20547;-64
2023/06/09 07:21:12;;;;;;;12.60;7.90;;;21.20;99.90;;;;;;5090415;28;20074;-64
2023/06/09 07:23:38;;;;;;;16.77;8.40;;;21.40;99.90;;;;;;5091129;28;20460;-62
2023/06/09 07:26:05;;;;;;;12.40;8.00;;;21.70;99.90;;;;;;5091127;28;20063;-64
2023/06/09 07:28:31;;;;;;;15.23;8.45;;;21.80;99.90;;;;;;5090809;28;20048;-64
2023/06/09 07:30:57;;;;;;;13.40;8.07;;;22.00;99.90;;;;;;5090895;28;20134;-65
2023/06/09 07:33:24;;;;;;;14.68;7.82;;;21.90;99.90;;;;;;5091409;28;20055;-64
2023/06/09 07:35:52;;;;;;;11.07;6.97;;;22.10;99.90;;;;;;5090929;28;20420;-67
2023/06/09 07:38:20;;;;;;;14.77;7.85;;;22.10;99.90;;;;;;5091260;28;20043;-65
2023/06/09 07:40:47;;;;;;;12.30;7.28;;;22.10;99.90;;;;;;5090765;28;20052;-65
2023/06/09 07:43:13;;;;;;;17.08;8.10;;;22.10;99.90;;;;;;5091315;28;20060;-64
2023/06/09 07:45:39;;;;;;;11.02;7.53;;;22.20;99.90;;;;;;5091048;28;20052;-63
2023/06/09 07:48:06;;;;;;;11.90;7.68;;;22.30;99.90;;;;;;5090817;28;20414;-64
2023/06/09 07:50:33;;;;;;;14.88;6.88;;;22.30;99.90;;;;;;5090586;28;20083;-67
2023/06/09 07:52:59;;;;;;;15.50;7.80;;;22.40;99.90;;;;;;5090952;28;20048;-66
2023/06/09 07:55:25;;;;;;;14.35;7.70;;;22.50;99.90;;;;;;5090990;28;20321;-66
2023/06/09 07:57:51;;;;;;;12.23;7.25;;;22.50;99.90;;;;;;5091055;28;20048;-65
2023/06/09 08:00:19;;;;;;;13.55;7.85;;;22.40;99.90;;;;;;5090890;28;20048;-65
2023/06/09 08:02:45;;;;;;;12.40;7.15;;;22.40;99.90;;;;;;5090871;28;20468;-65
2023/06/09 08:05:11;;;;;;;10.02;7.25;;;22.50;99.90;;;;;;5090894;28;20044;-65
2023/06/09 08:07:38;;;;;;;12.27;7.50;;;22.70;99.90;;;;;;5090694;28;20085;-67
2023/06/09 08:10:05;;;;;;;12.23;6.90;;;22.70;99.90;;;;;;5090610;28;20143;-63
2023/06/09 08:12:31;;;;;;;12.13;7.05;;;22.70;99.90;;;;;;5090810;28;20247;-64
2023/06/09 08:14:58;;;;;;;12.77;7.03;;;22.90;99.90;;;;;;5093487;28;20519;-64
2023/06/09 08:17:24;;;;;;;15.32;7.20;;;23.00;99.90;;;;;;5093899;28;20434;-64
2023/06/09 08:19:50;;;;;;;16.23;6.70;;;22.90;99.90;;;;;;5094743;28;20044;-64
2023/06/09 08:22:16;;;;;;;9.95;6.57;;;23.00;99.90;;;;;;5096676;28;20112;-63
2023/06/09 08:24:43;;;;;;;11.43;6.13;;;23.20;99.90;;;;;;5096227;28;20062;-67
2023/06/09 08:27:09;;;;;;;11.82;7.47;;;23.40;99.90;;;;;;5095089;28;20319;-65
2023/06/09 08:29:36;;;;;;;15.32;6.80;;;23.30;99.90;;;;;;5094582;28;20449;-65
2023/06/09 08:32:02;;;;;;;12.27;7.10;;;23.30;99.90;;;;;;5084071;28;20044;-63
2023/06/09 08:34:29;;;;;;;10.60;6.82;;;23.30;99.90;;;;;;5093443;28;20044;-63
2023/06/09 08:36:57;;;;;;;14.27;6.80;;;23.50;99.90;;;;;;5095767;28;20055;-63
2023/06/09 08:39:23;;;;;;;12.93;6.85;;;23.70;99.90;;;;;;5095704;28;20123;-63
2023/06/09 08:41:52;;;;;;;10.20;6.00;;;23.80;99.90;;;;;;5096313;28;20048;-66
2023/06/09 08:44:20;;;;;;;10.35;6.28;;;23.80;99.90;;;;;;5095885;28;20380;-64
2023/06/09 08:46:48;;;;;;;12.57;6.38;;;23.90;99.90;;;;;;5096118;28;20047;-63
2023/06/09 08:49:16;;;;;;;9.25;6.55;;;24.10;99.90;;;;;;5095275;28;20121;-62
2023/06/09 08:51:46;;;;;;;10.32;6.15;;;24.00;99.90;;;;;;5094291;28;20395;-64
2023/06/09 08:54:15;;;;;;;11.13;6.53;;;24.20;99.90;;;;;;5089936;28;20461;-65
2023/06/09 08:56:42;;;;;;;10.02;6.55;;;24.30;99.90;;;;;;5087524;28;20044;-64
2023/06/09 08:59:08;;;;;;;10.85;6.45;;;24.30;99.90;;;;;;5085161;28;20040;-64
2023/06/09 09:01:36;;;;;;;12.77;6.63;;;24.40;99.90;;;;;;5088178;28;20110;-64
2023/06/09 09:04:02;;;;;;;10.38;6.45;;;24.40;99.90;;;;;;5074082;28;20366;-66
2023/06/09 09:06:28;;;;;;;11.10;6.50;;;24.30;99.90;;;;;;5088146;28;20063;-65
2023/06/09 09:08:55;;;;;;;11.57;6.10;;;24.50;99.90;;;;;;5091108;28;20319;-67
2023/06/09 09:11:21;;;;;;;13.35;6.10;;;24.80;99.90;;;;;;5094158;28;20043;-64
2023/06/09 09:13:48;;;;;;;10.20;6.78;;;24.90;99.90;;;;;;5094610;28;20444;-65
2023/06/09 09:16:15;;;;;;;12.13;6.47;;;25.00;99.90;;;;;;5093825;28;20063;-64
2023/06/09 09:18:46;;;;;;;10.60;6.00;;;24.90;99.40;;;;;;5093834;28;20044;-68
2023/06/09 09:21:23;;;;;;;10.68;6.32;;;24.90;99.60;;;;;;5084935;28;20059;-64
2023/06/09 09:24:01;;;;;;;10.07;6.65;;;25.00;99.70;;;;;;5090618;28;20544;-66
2023/06/09 09:26:29;;;;;;;7.28;6.30;;;25.10;99.40;;;;;;5089932;28;20048;-64
2023/06/09 09:29:00;;;;;;;10.88;7.03;;;25.10;99.30;;;;;;5092988;28;20052;-67
2023/06/09 09:31:35;;;;;;;8.43;5.95;;;25.20;99.30;;;;;;5081113;28;20407;-65
2023/06/09 09:34:02;;;;;;;10.60;7.10;;;25.30;99.50;;;;;;5083245;28;20041;-66
2023/06/09 09:36:28;;;;;;;11.65;7.10;;;25.30;99.00;;;;;;5084533;28;20040;-65
2023/06/09 09:38:56;;;;;;;10.38;6.15;;;25.20;99.00;;;;;;5082410;28;20056;-64
2023/06/09 09:41:22;;;;;;;13.55;7.22;;;25.20;99.20;;;;;;5094457;28;20357;-66
2023/06/09 09:43:56;;;;;;;9.05;6.45;;;25.30;99.20;;;;;;5094279;28;20052;-65
2023/06/09 09:46:23;;;;;;;10.05;6.05;;;25.50;98.80;;;;;;5093981;28;20055;-67
2023/06/09 09:48:50;;;;;;;13.00;7.18;;;25.70;98.90;;;;;;5093752;28;20526;-68
2023/06/09 09:51:18;;;;;;;9.70;6.63;;;25.80;98.70;;;;;;5094372;28;20047;-65
2023/06/09 09:53:50;;;;;;;12.30;6.50;;;25.90;98.70;;;;;;5093303;28;20048;-66
2023/06/09 09:56:23;;;;;;;10.93;6.60;;;25.80;98.60;;;;;;5093188;28;20055;-64
2023/06/09 09:58:52;;;;;;;10.90;6.40;;;25.80;98.50;;;;;;5091266;28;20424;-69
2023/06/09 10:01:23;;;;;;;11.50;7.05;;;26.00;98.70;;;;;;5092734;28;20048;-65
2023/06/09 10:03:53;;;;;;;8.85;6.32;;;26.00;98.40;;;;;;5094189;28;20070;-67
2023/06/09 10:06:24;;;;;;;10.70;7.30;;;25.90;98.40;;;;;;5092618;28;20048;-65
2023/06/09 10:08:52;;;;;;;14.45;6.82;;;26.10;98.40;;;;;;5093266;28;20391;-64
2023/06/09 10:11:20;;;;;;;8.35;6.63;;;26.10;98.30;;;;;;5094280;28;20055;-63
2023/06/09 10:13:46;;;;;;;10.57;6.55;;;26.30;98.40;;;;;;5094030;28;20052;-64
2023/06/09 10:16:13;;;;;;;10.18;6.43;;;26.30;98.20;;;;;;5093706;28;20059;-64
2023/06/09 10:18:41;;;;;;;12.15;7.57;;;26.50;98.10;;;;;;5092873;28;20380;-64
2023/06/09 10:21:10;;;;;;;7.00;5.93;;;26.50;97.60;;;;;;5093381;28;20059;-65
2023/06/09 10:23:37;;;;;;;9.68;6.40;;;26.40;97.50;;;;;;5093458;28;20056;-63
2023/06/09 10:26:05;;;;;;;9.57;6.63;;;26.50;97.60;;;;;;5093484;28;20486;-62
2023/06/09 10:28:31;;;;;;;10.48;7.30;;;26.60;97.30;;;;;;5093447;28;20052;-63
2023/06/09 10:31:00;;;;;;;10.07;6.65;;;26.80;97.50;;;;;;5092720;28;20044;-63
2023/06/09 10:33:30;;;;;;;12.65;6.35;;;26.90;97.30;;;;;;5093440;28;20056;-62
2023/06/09 10:35:59;;;;;;;8.82;6.60;;;26.80;97.40;;;;;;5092825;28;20051;-63
2023/06/09 10:38:47;;;;;;;8.23;5.90;;;27.00;96.80;;;;;;5093307;28;20040;-63
2023/06/09 10:41:34;;;;;;;9.75;6.63;;;27.20;96.60;;;;;;5093134;28;20356;-62
2023/06/09 10:44:25;;;;;;;7.78;6.03;;;27.30;96.30;;;;;;5093318;28;20048;-63
2023/06/09 10:46:53;;;;;;;9.40;6.18;;;27.40;96.40;;;;;;5093030;28;20063;-63
2023/06/09 10:49:49;;;;;;;8.80;6.07;;;27.40;96.30;;;;;;5092780;28;20043;-66
2023/06/09 10:52:41;;;;;;;9.60;6.30;;;27.40;96.30;;;;;;5092354;28;20052;-66
2023/06/09 10:55:15;;;;;;;8.88;5.57;;;27.50;95.80;;;;;;5092523;28;20040;-65
2023/06/09 10:57:43;;;;;;;7.93;6.03;;;27.50;95.50;;;;;;5092765;28;20780;-63
2023/06/09 11:00:13;;;;;;;9.60;6.35;;;27.50;95.30;;;;;;5091572;28;20526;-64
2023/06/09 11:02:40;;;;;;;10.48;5.90;;;27.60;95.70;;;;;;5091039;28;20443;-65
2023/06/09 11:05:08;;;;;;;9.00;5.63;;;27.70;95.80;;;;;;5092536;28;20455;-63
2023/06/09 11:08:04;;;;;;;11.43;6.60;;;27.80;95.60;;;;;;5092805;28;20058;-63
2023/06/09 11:10:30;;;;;;;9.07;6.47;;;27.90;95.00;;;;;;5090392;28;20414;-63
2023/06/09 11:12:57;;;;;;;8.70;6.10;;;28.10;95.20;;;;;;5092599;28;20051;-63
2023/06/09 11:15:52;;;;;;;7.28;6.05;;;28.10;94.90;;;;;;5091946;28;20044;-66
2023/06/09 11:18:18;;;;;;;6.90;5.88;;;28.10;95.00;;;;;;5080560;28;20040;-64
2023/06/09 11:21:08;;;;;;;8.38;6.10;;;28.20;94.50;;;;;;5081569;28;20056;-65
2023/06/09 11:23:57;;;;;;;7.35;5.85;;;28.20;94.50;;;;;;5072607;28;20059;-66
2023/06/09 11:26:24;;;;;;;7.90;5.82;;;28.20;94.10;;;;;;5086712;28;20043;-65
2023/06/09 11:28:51;;;;;;;9.82;6.03;;;28.20;94.30;;;;;;5092172;28;20464;-65
2023/06/09 11:31:17;;;;;;;8.55;6.00;;;28.40;94.50;;;;;;5092280;28;20121;-63
2023/06/09 11:33:53;;;;;;;11.07;6.53;;;28.50;94.10;;;;;;5092523;28;20040;-63
2023/06/09 11:36:22;;;;;;;7.82;5.90;;;28.50;94.00;;;;;;5092303;28;20036;-66
2023/06/09 11:38:49;;;;;;;6.35;5.65;;;28.70;94.10;;;;;;5091951;28;20540;-63
2023/06/09 11:41:20;;;;;;;8.50;6.28;;;28.70;93.40;;;;;;5091910;28;20052;-63
2023/06/09 11:43:50;;;;;;;8.25;5.82;;;28.70;92.70;;;;;;5092703;28;20056;-65
2023/06/09 11:46:17;;;;;;;7.68;5.82;;;28.60;92.90;;;;;;5092348;28;20056;-63
2023/06/09 11:48:57;;;;;;;6.72;5.78;;;28.80;93.30;;;;;;5093336;28;20048;-64
2023/06/09 11:51:24;;;;;;;8.05;6.05;;;28.90;92.90;;;;;;5096289;28;20044;-63
2023/06/09 11:53:50;;;;;;;7.80;6.30;;;28.90;92.40;;;;;;5096714;28;20044;-63
2023/06/09 11:56:16;;;;;;;7.68;6.20;;;28.80;92.60;;;;;;5096099;28;20121;-63
2023/06/09 11:58:42;;;;;;;8.75;5.45;;;28.90;92.50;;;;;;5095759;28;20048;-63
2023/06/09 12:01:09;;;;;;;6.75;5.63;;;28.90;92.70;;;;;;5085906;28;20548;-63
2023/06/09 12:03:36;;;;;;;7.40;5.80;;;29.00;92.40;;;;;;5086334;28;20126;-63
2023/06/09 12:06:03;;;;;;;10.73;6.00;;;29.30;92.60;;;;;;5086702;28;20048;-64
2023/06/09 12:08:29;;;;;;;7.65;6.18;;;29.40;92.60;;;;;;5086140;28;20071;-64
2023/06/09 12:10:55;;;;;;;11.60;6.20;;;29.50;92.50;;;;;;5088281;28;20106;-63
2023/06/09 12:13:21;;;;;;;9.30;6.28;;;29.60;92.30;;;;;;5093154;28;20281;-63
2023/06/09 12:15:51;;;;;;;8.50;6.18;;;29.60;92.20;;;;;;5096115;28;20048;-64
2023/06/09 12:18:18;;;;;;;8.15;5.75;;;29.50;91.60;;;;;;5096427;28;20407;-63
2023/06/09 12:20:46;;;;;;;7.85;5.60;;;29.40;91.70;;;;;;5095273;28;20044;-63
2023/06/09 12:23:14;;;;;;;8.48;5.93;;;29.40;91.60;;;;;;5095711;28;20424;-63
2023/06/09 12:25:51;;;;;;;7.72;6.00;;;29.40;91.60;;;;;;5095720;28;20047;-63
2023/06/09 12:28:31;;;;;;;7.43;5.55;;;29.50;91.90;;;;;;5096054;28;20056;-63
2023/06/09 12:31:11;;;;;;;8.77;6.13;;;29.50;91.70;;;;;;5095535;28;20044;-63
2023/06/09 12:33:38;;;;;;;8.70;5.90;;;29.50;91.50;;;;;;5088401;28;20048;-64
2023/06/09 12:36:09;;;;;;;8.48;5.85;;;29.60;91.60;;;;;;5087392;28;20058;-63
2023/06/09 12:38:38;;;;;;;8.00;6.05;;;29.60;91.30;;;;;;5084014;28;20057;-64
2023/06/09 12:41:08;;;;;;;7.15;5.68;;;29.50;91.30;;;;;;5082953;28;20090;-65
2023/06/09 12:43:45;;;;;;;8.45;6.25;;;29.50;91.50;;;;;;5085156;28;20052;-64
2023/06/09 12:46:13;;;;;;;9.38;6.30;;;29.50;91.00;;;;;;5085924;28;20451;-65